createdAt,value
2019-01-17T00:00:33.404Z,0.00
2019-01-17T00:01:33.370Z,0.00
2019-01-17T00:02:33.335Z,0.00
2019-01-17T00:03:33.302Z,0.00
2019-01-17T00:04:33.267Z,0.00
2019-01-17T00:05:33.231Z,0.00
2019-01-17T00:06:33.197Z,0.00
2019-01-17T00:07:33.165Z,0.00
2019-01-17T00:08:33.129Z,0.00
2019-01-17T00:09:33.133Z,0.00
2019-01-17T00:10:33.062Z,0.00
2019-01-17T00:11:33.028Z,0.00
2019-01-17T00:12:32.993Z,0.00
2019-01-17T00:13:32.959Z,0.00
2019-01-17T00:14:32.925Z,0.00
2019-01-17T00:15:32.894Z,0.00
2019-01-17T00:16:32.856Z,0.00
2019-01-17T00:17:32.824Z,0.00
2019-01-17T00:18:32.789Z,0.00
2019-01-17T00:19:32.755Z,0.00
2019-01-17T00:20:32.720Z,0.00
2019-01-17T00:21:32.688Z,0.00
2019-01-17T00:22:32.654Z,0.00
2019-01-17T00:23:32.621Z,0.00
2019-01-17T00:24:32.585Z,0.00
2019-01-17T00:25:32.550Z,0.00
2019-01-17T00:26:32.516Z,0.00
2019-01-17T00:27:32.484Z,0.00
2019-01-17T00:28:32.448Z,0.00
2019-01-17T00:29:32.414Z,0.00
2019-01-17T00:30:32.384Z,0.00
2019-01-17T00:31:32.347Z,0.00
2019-01-17T00:32:32.313Z,0.00
2019-01-17T00:33:32.279Z,0.00
2019-01-17T00:34:32.244Z,0.00
2019-01-17T00:35:32.212Z,0.00
2019-01-17T00:36:32.176Z,0.00
2019-01-17T00:37:32.143Z,0.00
2019-01-17T00:38:32.109Z,0.00
2019-01-17T00:39:32.075Z,0.00
2019-01-17T00:40:32.040Z,0.00
2019-01-17T00:41:32.011Z,0.00
2019-01-17T00:42:31.972Z,0.00
2019-01-17T00:43:31.939Z,0.00
2019-01-17T00:44:31.905Z,0.00
2019-01-17T00:45:31.872Z,0.00
2019-01-17T00:46:31.836Z,0.00
2019-01-17T00:47:31.803Z,0.00
2019-01-17T00:48:31.770Z,0.00
2019-01-17T00:49:32.816Z,0.00
2019-01-17T00:50:31.701Z,0.00
2019-01-17T00:51:31.669Z,0.00
2019-01-17T00:52:31.633Z,0.00
2019-01-17T00:53:31.599Z,0.00
2019-01-17T00:54:31.566Z,0.00
2019-01-17T00:55:31.532Z,0.00
2019-01-17T00:56:31.497Z,0.00
2019-01-17T00:57:31.462Z,0.00
2019-01-17T00:58:31.429Z,0.00
2019-01-17T00:59:31.395Z,0.00
2019-01-17T01:00:31.361Z,0.00
2019-01-17T01:01:31.326Z,0.00
2019-01-17T01:02:31.292Z,0.00
2019-01-17T01:03:31.259Z,0.00
2019-01-17T01:04:31.226Z,0.00
2019-01-17T01:05:31.194Z,0.00
2019-01-17T01:06:31.158Z,0.00
2019-01-17T01:07:31.124Z,0.00
2019-01-17T01:08:31.119Z,0.00
2019-01-17T01:09:31.057Z,0.00
2019-01-17T01:10:31.022Z,0.00
2019-01-17T01:11:30.988Z,0.00
2019-01-17T01:12:30.954Z,0.00
2019-01-17T01:13:30.919Z,0.00
2019-01-17T01:14:30.885Z,0.00
2019-01-17T01:15:31.001Z,0.00
2019-01-17T01:16:30.817Z,0.00
2019-01-17T01:17:30.786Z,0.00
2019-01-17T01:18:30.750Z,0.00
2019-01-17T01:19:30.717Z,0.00
2019-01-17T01:20:30.682Z,0.00
2019-01-17T01:21:30.647Z,0.00
2019-01-17T01:22:30.614Z,0.00
2019-01-17T01:23:30.582Z,0.00
2019-01-17T01:24:30.546Z,0.00
2019-01-17T01:25:30.513Z,0.00
2019-01-17T01:26:30.481Z,0.00
2019-01-17T01:27:30.446Z,0.00
2019-01-17T01:28:30.411Z,0.00
2019-01-17T01:29:30.379Z,0.00
2019-01-17T01:30:30.343Z,0.00
2019-01-17T01:31:30.310Z,0.00
2019-01-17T01:32:30.275Z,0.00
2019-01-17T01:33:30.242Z,0.00
2019-01-17T01:34:30.208Z,0.00
2019-01-17T01:35:30.175Z,0.00
2019-01-17T01:36:30.141Z,0.00
2019-01-17T01:37:30.107Z,0.00
2019-01-17T01:38:30.073Z,0.00
2019-01-17T01:39:30.043Z,0.00
2019-01-17T01:40:30.004Z,0.00
2019-01-17T01:41:29.970Z,0.00
2019-01-17T01:42:29.936Z,0.00
2019-01-17T01:43:29.903Z,0.00
2019-01-17T01:44:29.868Z,0.00
2019-01-17T01:45:29.834Z,0.00
2019-01-17T01:46:29.802Z,0.00
2019-01-17T01:47:29.767Z,0.00
2019-01-17T01:48:29.732Z,0.00
2019-01-17T01:49:29.699Z,0.00
2019-01-17T01:50:29.666Z,0.00
2019-01-17T01:51:29.633Z,0.00
2019-01-17T01:52:29.602Z,0.00
2019-01-17T01:53:29.563Z,0.00
2019-01-17T01:54:29.530Z,0.00
2019-01-17T01:55:29.502Z,0.00
2019-01-17T01:56:29.469Z,0.00
2019-01-17T01:57:29.428Z,0.00
2019-01-17T01:58:29.396Z,0.00
2019-01-17T01:59:29.363Z,0.00
2019-01-17T02:00:29.326Z,0.00
2019-01-17T02:01:29.293Z,0.00
2019-01-17T02:02:29.260Z,0.00
2019-01-17T02:03:29.226Z,0.00
2019-01-17T02:04:29.192Z,0.00
2019-01-17T02:05:29.158Z,0.00
2019-01-17T02:06:29.125Z,0.00
2019-01-17T02:07:29.091Z,0.00
2019-01-17T02:08:29.057Z,0.00
2019-01-17T02:09:29.021Z,0.00
2019-01-17T02:10:28.989Z,0.00
2019-01-17T02:11:28.954Z,0.00
2019-01-17T02:12:28.920Z,0.00
2019-01-17T02:13:28.886Z,0.00
2019-01-17T02:14:28.852Z,0.00
2019-01-17T02:15:28.820Z,0.00
2019-01-17T02:16:28.784Z,0.00
2019-01-17T02:17:28.750Z,0.00
2019-01-17T02:18:28.718Z,0.00
2019-01-17T02:19:28.684Z,0.00
2019-01-17T02:20:28.651Z,0.00
2019-01-17T02:21:28.615Z,0.00
2019-01-17T02:22:28.581Z,0.00
2019-01-17T02:23:28.548Z,0.00
2019-01-17T02:24:28.729Z,0.00
2019-01-17T02:25:28.482Z,0.00
2019-01-17T02:26:28.446Z,0.00
2019-01-17T02:27:28.413Z,0.00
2019-01-17T02:28:28.378Z,0.00
2019-01-17T02:29:28.345Z,0.00
2019-01-17T02:30:28.313Z,0.00
2019-01-17T02:31:28.279Z,0.00
2019-01-17T02:32:28.245Z,0.00
2019-01-17T02:33:28.238Z,0.00
2019-01-17T02:34:28.176Z,0.00
2019-01-17T02:35:28.144Z,0.00
2019-01-17T02:36:28.108Z,0.00
2019-01-17T02:37:28.076Z,0.00
2019-01-17T02:38:28.041Z,0.00
2019-01-17T02:39:28.010Z,0.00
2019-01-17T02:40:27.973Z,0.00
2019-01-17T02:41:27.940Z,0.00
2019-01-17T02:42:27.906Z,0.00
2019-01-17T02:43:27.874Z,0.00
2019-01-17T02:44:27.838Z,0.00
2019-01-17T02:45:27.807Z,0.00
2019-01-17T02:46:27.772Z,0.00
2019-01-17T02:47:27.738Z,0.00
2019-01-17T02:48:27.703Z,0.00
2019-01-17T02:49:27.688Z,0.00
2019-01-17T02:50:27.638Z,0.00
2019-01-17T02:51:27.604Z,0.00
2019-01-17T02:52:27.575Z,0.00
2019-01-17T02:53:27.537Z,0.00
2019-01-17T02:54:27.504Z,0.00
2019-01-17T02:55:27.471Z,0.00
2019-01-17T02:56:27.433Z,0.00
2019-01-17T02:57:27.399Z,0.00
2019-01-17T02:58:27.367Z,0.00
2019-01-17T02:59:27.332Z,0.00
2019-01-17T03:00:27.298Z,0.00
2019-01-17T03:01:27.264Z,0.00
2019-01-17T03:02:27.238Z,0.00
2019-01-17T03:03:27.195Z,0.00
2019-01-17T03:04:27.163Z,0.00
2019-01-17T03:05:27.132Z,0.00
2019-01-17T03:06:27.095Z,0.00
2019-01-17T03:07:27.061Z,0.00
2019-01-17T03:08:27.128Z,0.00
2019-01-17T03:09:26.993Z,0.00
2019-01-17T03:10:26.963Z,0.00
2019-01-17T03:11:26.925Z,0.00
2019-01-17T03:12:26.891Z,0.00
2019-01-17T03:13:26.858Z,0.00
2019-01-17T03:14:26.827Z,0.00
2019-01-17T03:15:26.790Z,0.00
2019-01-17T03:16:26.754Z,0.00
2019-01-17T03:17:26.723Z,0.00
2019-01-17T03:18:26.687Z,0.00
2019-01-17T03:19:26.654Z,0.00
2019-01-17T03:20:26.621Z,0.00
2019-01-17T03:21:26.592Z,0.00
2019-01-17T03:22:26.554Z,0.00
2019-01-17T03:23:26.518Z,0.00
2019-01-17T03:24:26.482Z,0.00
2019-01-17T03:25:26.449Z,0.00
2019-01-17T03:26:26.414Z,0.00
2019-01-17T03:27:26.382Z,0.00
2019-01-17T03:28:26.346Z,0.00
2019-01-17T03:29:26.312Z,0.00
2019-01-17T03:30:26.281Z,0.00
2019-01-17T03:31:26.246Z,0.00
2019-01-17T03:32:26.217Z,0.00
2019-01-17T03:33:26.179Z,0.00
2019-01-17T03:34:26.813Z,0.00
2019-01-17T03:35:26.109Z,0.00
2019-01-17T03:36:26.077Z,0.00
2019-01-17T03:37:26.042Z,0.00
2019-01-17T03:38:26.008Z,0.00
2019-01-17T03:39:25.978Z,0.00
2019-01-17T03:40:25.943Z,0.00
2019-01-17T03:41:25.906Z,0.00
2019-01-17T03:42:25.875Z,0.00
2019-01-17T03:43:25.838Z,0.00
2019-01-17T03:44:25.808Z,0.00
2019-01-17T03:45:25.770Z,0.00
2019-01-17T03:46:25.736Z,0.00
2019-01-17T03:47:25.702Z,0.00
2019-01-17T03:48:25.666Z,0.00
2019-01-17T03:49:25.637Z,0.00
2019-01-17T03:50:25.599Z,0.00
2019-01-17T03:51:25.569Z,0.00
2019-01-17T03:52:25.531Z,0.00
2019-01-17T03:53:25.501Z,0.00
2019-01-17T03:54:25.463Z,0.00
2019-01-17T03:55:25.431Z,0.00
2019-01-17T03:56:25.396Z,0.00
2019-01-17T03:57:25.363Z,0.00
2019-01-17T03:58:25.328Z,0.00
2019-01-17T03:59:25.296Z,0.00
2019-01-17T04:00:25.259Z,0.00
2019-01-17T04:01:25.226Z,0.00
2019-01-17T04:02:25.191Z,0.00
2019-01-17T04:03:25.158Z,0.00
2019-01-17T04:04:25.125Z,0.00
2019-01-17T04:05:25.090Z,0.00
2019-01-17T04:06:25.057Z,0.00
2019-01-17T04:07:25.021Z,0.00
2019-01-17T04:08:24.987Z,0.00
2019-01-17T04:09:24.954Z,0.00
2019-01-17T04:10:24.919Z,0.00
2019-01-17T04:11:24.885Z,0.00
2019-01-17T04:12:24.852Z,0.00
2019-01-17T04:13:24.817Z,0.00
2019-01-17T04:14:24.782Z,0.00
2019-01-17T04:15:24.749Z,0.00
2019-01-17T04:16:24.714Z,0.00
2019-01-17T04:17:24.680Z,0.00
2019-01-17T04:18:24.646Z,0.00
2019-01-17T04:19:24.622Z,0.00
2019-01-17T04:20:24.580Z,0.00
2019-01-17T04:21:24.546Z,0.00
2019-01-17T04:22:24.509Z,0.00
2019-01-17T04:23:24.476Z,0.00
2019-01-17T04:24:24.442Z,0.00
2019-01-17T04:25:24.407Z,0.00
2019-01-17T04:26:24.375Z,0.00
2019-01-17T04:27:24.341Z,0.00
2019-01-17T04:28:24.306Z,0.00
2019-01-17T04:29:24.273Z,0.00
2019-01-17T04:30:24.237Z,0.00
2019-01-17T04:31:24.213Z,0.00
2019-01-17T04:32:24.169Z,0.00
2019-01-17T04:33:24.138Z,0.00
2019-01-17T04:34:24.103Z,0.00
2019-01-17T04:35:24.068Z,0.00
2019-01-17T04:36:24.033Z,0.00
2019-01-17T04:37:23.999Z,0.00
2019-01-17T04:38:23.966Z,0.00
2019-01-17T04:39:23.932Z,0.00
2019-01-17T04:40:23.897Z,0.00
2019-01-17T04:41:23.862Z,0.00
2019-01-17T04:42:23.838Z,0.00
2019-01-17T04:43:23.794Z,0.00
2019-01-17T04:44:23.759Z,0.00
2019-01-17T04:45:23.726Z,0.00
2019-01-17T04:46:23.693Z,0.00
2019-01-17T04:47:23.659Z,0.00
2019-01-17T04:48:23.625Z,0.00
2019-01-17T04:49:23.589Z,0.00
2019-01-17T04:50:23.559Z,0.00
2019-01-17T04:51:23.521Z,0.00
2019-01-17T04:52:23.487Z,0.00
2019-01-17T04:53:23.453Z,0.00
2019-01-17T04:54:23.418Z,0.00
2019-01-17T04:55:23.387Z,0.00
2019-01-17T04:56:23.351Z,0.00
2019-01-17T04:57:23.315Z,0.00
2019-01-17T04:58:23.284Z,0.00
2019-01-17T04:59:23.248Z,0.00
2019-01-17T05:00:23.214Z,0.00
2019-01-17T05:01:23.180Z,0.00
2019-01-17T05:02:23.147Z,0.00
2019-01-17T05:03:23.115Z,0.00
2019-01-17T05:04:23.079Z,0.00
2019-01-17T05:05:23.043Z,0.00
2019-01-17T05:06:23.008Z,0.00
2019-01-17T05:07:22.975Z,0.00
2019-01-17T05:08:22.941Z,0.00
2019-01-17T05:09:22.908Z,0.00
2019-01-17T05:10:22.873Z,0.00
2019-01-17T05:11:22.838Z,0.00
2019-01-17T05:12:22.803Z,0.00
2019-01-17T05:13:22.770Z,0.00
2019-01-17T05:14:22.737Z,0.00
2019-01-17T05:15:22.701Z,0.00
2019-01-17T05:16:22.669Z,0.00
2019-01-17T05:17:22.633Z,0.00
2019-01-17T05:18:22.601Z,0.00
2019-01-17T05:19:22.566Z,0.00
2019-01-17T05:20:22.531Z,0.00
2019-01-17T05:21:22.498Z,0.00
2019-01-17T05:22:22.464Z,0.00
2019-01-17T05:23:22.429Z,0.00
2019-01-17T05:24:22.395Z,0.00
2019-01-17T05:25:22.362Z,0.00
2019-01-17T05:26:22.326Z,0.00
2019-01-17T05:27:22.292Z,0.00
2019-01-17T05:28:22.260Z,0.00
2019-01-17T05:29:22.224Z,0.00
2019-01-17T05:30:22.190Z,0.00
2019-01-17T05:31:22.156Z,0.00
2019-01-17T05:32:22.122Z,0.00
2019-01-17T05:33:22.087Z,0.00
2019-01-17T05:34:22.054Z,0.00
2019-01-17T05:35:22.021Z,0.00
2019-01-17T05:36:21.986Z,0.00
2019-01-17T05:37:22.201Z,0.00
2019-01-17T05:38:21.917Z,0.00
2019-01-17T05:39:21.884Z,0.00
2019-01-17T05:40:21.848Z,0.00
2019-01-17T05:41:21.817Z,0.00
2019-01-17T05:42:21.781Z,0.00
2019-01-17T05:43:21.750Z,0.00
2019-01-17T05:44:21.713Z,0.00
2019-01-17T05:45:21.680Z,0.00
2019-01-17T05:46:21.651Z,0.00
2019-01-17T05:47:21.610Z,0.00
2019-01-17T05:48:21.577Z,0.00
2019-01-17T05:49:21.543Z,0.00
2019-01-17T05:50:21.508Z,0.00
2019-01-17T05:51:21.475Z,0.00
2019-01-17T05:52:21.441Z,0.00
2019-01-17T05:53:21.405Z,0.00
2019-01-17T05:54:21.371Z,0.00
2019-01-17T05:55:21.337Z,0.00
2019-01-17T05:56:21.302Z,0.00
2019-01-17T05:57:21.270Z,0.00
2019-01-17T05:58:21.235Z,0.00
2019-01-17T05:59:21.202Z,0.00
2019-01-17T06:00:21.168Z,0.00
2019-01-17T06:01:21.134Z,0.00
2019-01-17T06:02:21.099Z,0.00
2019-01-17T06:03:21.066Z,0.00
2019-01-17T06:04:21.031Z,0.00
2019-01-17T06:05:20.997Z,0.00
2019-01-17T06:06:20.963Z,0.00
2019-01-17T06:07:20.928Z,0.00
2019-01-17T06:08:20.894Z,0.00
2019-01-17T06:09:20.860Z,0.00
2019-01-17T06:10:20.825Z,0.00
2019-01-17T06:11:20.791Z,0.00
2019-01-17T06:12:20.757Z,0.00
2019-01-17T06:13:20.723Z,0.00
2019-01-17T06:14:20.687Z,0.00
2019-01-17T06:15:20.659Z,0.00
2019-01-17T06:16:20.619Z,0.00
2019-01-17T06:17:20.585Z,0.00
2019-01-17T06:18:20.551Z,0.00
2019-01-17T06:19:20.518Z,0.00
2019-01-17T06:20:20.485Z,0.00
2019-01-17T06:21:20.448Z,0.00
2019-01-17T06:22:20.415Z,0.00
2019-01-17T06:23:20.380Z,0.00
2019-01-17T06:24:20.346Z,0.00
2019-01-17T06:25:27.777Z,0.00
2019-01-17T06:26:20.277Z,0.00
2019-01-17T06:27:20.243Z,0.00
2019-01-17T06:28:20.209Z,0.00
2019-01-17T06:29:20.176Z,0.00
2019-01-17T06:30:20.142Z,0.00
2019-01-17T06:31:20.106Z,0.00
2019-01-17T06:32:20.071Z,0.00
2019-01-17T06:33:20.038Z,0.00
2019-01-17T06:34:20.006Z,0.00
2019-01-17T06:35:19.975Z,0.00
2019-01-17T06:36:19.935Z,0.00
2019-01-17T06:37:19.902Z,0.00
2019-01-17T06:38:19.869Z,0.00
2019-01-17T06:39:19.834Z,0.00
2019-01-17T06:40:19.799Z,0.00
2019-01-17T06:41:19.765Z,0.00
2019-01-17T06:42:19.730Z,4.00
2019-01-17T06:43:19.697Z,4.00
2019-01-17T06:44:20.443Z,4.00
2019-01-17T06:45:19.629Z,4.00
2019-01-17T06:46:19.593Z,4.00
2019-01-17T06:47:19.561Z,4.00
2019-01-17T06:48:19.526Z,4.00
2019-01-17T06:49:19.490Z,8.00
2019-01-17T06:50:19.458Z,4.00
2019-01-17T06:51:19.423Z,8.00
2019-01-17T06:52:19.387Z,8.00
2019-01-17T06:53:19.355Z,12.00
2019-01-17T06:54:19.320Z,12.00
2019-01-17T06:55:19.287Z,12.00
2019-01-17T06:56:19.253Z,16.00
2019-01-17T06:57:19.222Z,20.00
2019-01-17T06:58:19.187Z,24.00
2019-01-17T06:59:19.155Z,28.00
2019-01-17T07:00:19.116Z,28.00
2019-01-17T07:01:19.082Z,36.00
2019-01-17T07:02:19.048Z,44.00
2019-01-17T07:03:19.019Z,48.00
2019-01-17T07:04:18.981Z,60.00
2019-01-17T07:05:18.946Z,72.00
2019-01-17T07:06:18.917Z,84.00
2019-01-17T07:07:18.878Z,104.00
2019-01-17T07:08:18.843Z,128.00
2019-01-17T07:09:18.818Z,152.00
2019-01-17T07:10:18.775Z,172.00
2019-01-17T07:11:18.751Z,188.00
2019-01-17T07:12:18.749Z,216.00
2019-01-17T07:13:18.675Z,236.00
2019-01-17T07:14:18.640Z,244.00
2019-01-17T07:15:18.606Z,260.00
2019-01-17T07:16:18.570Z,272.00
2019-01-17T07:17:18.537Z,292.00
2019-01-17T07:18:18.503Z,336.00
2019-01-17T07:19:18.469Z,380.00
2019-01-17T07:20:18.437Z,412.00
2019-01-17T07:21:18.400Z,448.00
2019-01-17T07:22:18.367Z,488.00
2019-01-17T07:23:18.334Z,516.00
2019-01-17T07:24:18.299Z,544.00
2019-01-17T07:25:18.265Z,592.00
2019-01-17T07:26:18.231Z,632.00
2019-01-17T07:27:18.196Z,708.00
2019-01-17T07:28:18.162Z,800.00
2019-01-17T07:29:18.128Z,812.00
2019-01-17T07:30:18.093Z,872.00
2019-01-17T07:31:18.060Z,900.00
2019-01-17T07:32:18.025Z,924.00
2019-01-17T07:33:17.997Z,948.00
2019-01-17T07:34:17.966Z,976.00
2019-01-17T07:35:17.924Z,944.00
2019-01-17T07:36:17.887Z,940.00
2019-01-17T07:37:17.854Z,996.00
2019-01-17T07:38:17.821Z,976.00
2019-01-17T07:39:17.786Z,936.00
2019-01-17T07:40:17.751Z,992.00
2019-01-17T07:41:17.717Z,1084.00
2019-01-17T07:42:17.683Z,1152.00
2019-01-17T07:43:17.649Z,1244.00
2019-01-17T07:44:17.615Z,1324.00
2019-01-17T07:45:17.588Z,1424.00
2019-01-17T07:46:17.547Z,1496.00
2019-01-17T07:47:17.514Z,1540.00
2019-01-17T07:48:17.477Z,1500.00
2019-01-17T07:49:17.443Z,1544.00
2019-01-17T07:50:17.410Z,1600.00
2019-01-17T07:51:17.376Z,1676.00
2019-01-17T07:52:17.341Z,1784.00
2019-01-17T07:53:17.307Z,1944.00
2019-01-17T07:54:17.273Z,2048.00
2019-01-17T07:55:17.240Z,2076.00
2019-01-17T07:56:17.204Z,2288.00
2019-01-17T07:57:17.169Z,2380.00
2019-01-17T07:58:17.136Z,2252.00
2019-01-17T07:59:17.103Z,2292.00
2019-01-17T08:00:17.067Z,2376.00
2019-01-17T08:01:17.035Z,2456.00
2019-01-17T08:02:16.999Z,2560.00
2019-01-17T08:03:16.964Z,2704.00
2019-01-17T08:04:16.931Z,2824.00
2019-01-17T08:05:16.896Z,2844.00
2019-01-17T08:06:16.863Z,2876.00
2019-01-17T08:07:16.828Z,2768.00
2019-01-17T08:08:16.793Z,2712.00
2019-01-17T08:09:16.760Z,2760.00
2019-01-17T08:10:16.762Z,2808.00
2019-01-17T08:11:16.690Z,2912.00
2019-01-17T08:12:16.655Z,3212.00
2019-01-17T08:13:16.621Z,3924.00
2019-01-17T08:14:16.588Z,4080.00
2019-01-17T08:15:16.556Z,3368.00
2019-01-17T08:16:16.518Z,3324.00
2019-01-17T08:17:16.484Z,3488.00
2019-01-17T08:18:18.745Z,3480.00
2019-01-17T08:19:16.416Z,3792.00
2019-01-17T08:20:16.380Z,4216.00
2019-01-17T08:21:16.345Z,3224.00
2019-01-17T08:22:16.311Z,3388.00
2019-01-17T08:23:16.278Z,4304.00
2019-01-17T08:24:16.243Z,3776.00
2019-01-17T08:25:16.211Z,3892.00
2019-01-17T08:26:16.176Z,3376.00
2019-01-17T08:27:16.139Z,2824.00
2019-01-17T08:28:16.105Z,2956.00
2019-01-17T08:29:16.071Z,3760.00
2019-01-17T08:30:16.037Z,4884.00
2019-01-17T08:31:16.001Z,4592.00
2019-01-17T08:32:15.967Z,4692.00
2019-01-17T08:33:15.933Z,5216.00
2019-01-17T08:34:15.900Z,5464.00
2019-01-17T08:35:15.865Z,4900.00
2019-01-17T08:36:15.831Z,4832.00
2019-01-17T08:37:15.796Z,4544.00
2019-01-17T08:38:15.761Z,5112.00
2019-01-17T08:39:15.728Z,5552.00
2019-01-17T08:40:20.292Z,5988.00
2019-01-17T08:41:15.659Z,6028.00
2019-01-17T08:42:15.626Z,6304.00
2019-01-17T08:43:15.591Z,6120.00
2019-01-17T08:44:15.557Z,6164.00
2019-01-17T08:45:15.522Z,6708.00
2019-01-17T08:46:15.487Z,7040.00
2019-01-17T08:47:15.454Z,6880.00
2019-01-17T08:48:15.421Z,5912.00
2019-01-17T08:49:15.386Z,4972.00
2019-01-17T08:50:15.351Z,4204.00
2019-01-17T08:51:15.318Z,3640.00
2019-01-17T08:52:15.282Z,4312.00
2019-01-17T08:53:15.248Z,4460.00
2019-01-17T08:54:15.216Z,3668.00
2019-01-17T08:55:15.182Z,3244.00
2019-01-17T08:56:15.146Z,3684.00
2019-01-17T08:57:15.112Z,4768.00
2019-01-17T08:58:15.080Z,5468.00
2019-01-17T08:59:15.045Z,5476.00
2019-01-17T09:00:15.010Z,4860.00
2019-01-17T09:01:14.978Z,5160.00
2019-01-17T09:02:14.944Z,5820.00
2019-01-17T09:03:14.911Z,6552.00
2019-01-17T09:04:14.877Z,6380.00
2019-01-17T09:05:14.840Z,6140.00
2019-01-17T09:06:14.807Z,6180.00
2019-01-17T09:07:14.773Z,6072.00
2019-01-17T09:08:14.738Z,6324.00
2019-01-17T09:09:14.706Z,6260.00
2019-01-17T09:10:14.672Z,5836.00
2019-01-17T09:11:14.638Z,5704.00
2019-01-17T09:12:14.603Z,5184.00
2019-01-17T09:13:14.570Z,5268.00
2019-01-17T09:14:14.535Z,5464.00
2019-01-17T09:15:14.502Z,5544.00
2019-01-17T09:16:14.468Z,5572.00
2019-01-17T09:17:14.434Z,5400.00
2019-01-17T09:18:14.400Z,5168.00
2019-01-17T09:19:14.367Z,5012.00
2019-01-17T09:20:14.332Z,4400.00
2019-01-17T09:21:14.298Z,4732.00
2019-01-17T09:22:14.267Z,5084.00
2019-01-17T09:23:14.232Z,5276.00
2019-01-17T09:24:14.234Z,5376.00
2019-01-17T09:25:14.165Z,5132.00
2019-01-17T09:26:14.131Z,5052.00
2019-01-17T09:27:14.097Z,4736.00
2019-01-17T09:28:14.063Z,4360.00
2019-01-17T09:29:14.030Z,4260.00
2019-01-17T09:30:13.997Z,4440.00
2019-01-17T09:31:13.963Z,4300.00
2019-01-17T09:32:13.930Z,4176.00
2019-01-17T09:33:13.895Z,3880.00
2019-01-17T09:34:13.862Z,3476.00
2019-01-17T09:35:13.827Z,3608.00
2019-01-17T09:36:13.794Z,3836.00
2019-01-17T09:37:13.760Z,3668.00
2019-01-17T09:38:13.726Z,3040.00
2019-01-17T09:39:13.893Z,2456.00
2019-01-17T09:40:13.659Z,2640.00
2019-01-17T09:41:13.626Z,3056.00
2019-01-17T09:42:13.592Z,3280.00
2019-01-17T09:43:13.558Z,3396.00
2019-01-17T09:44:13.524Z,3804.00
2019-01-17T09:45:13.490Z,3940.00
2019-01-17T09:46:13.458Z,3796.00
2019-01-17T09:47:13.425Z,4264.00
2019-01-17T09:48:13.389Z,4144.00
2019-01-17T09:49:13.355Z,4704.00
2019-01-17T09:50:13.322Z,4764.00
2019-01-17T09:51:13.289Z,5188.00
2019-01-17T09:52:13.256Z,5088.00
2019-01-17T09:53:13.221Z,5140.00
2019-01-17T09:54:13.189Z,5596.00
2019-01-17T09:55:13.153Z,4888.00
2019-01-17T09:56:14.987Z,4524.00
2019-01-17T09:57:13.087Z,4668.00
2019-01-17T09:58:13.056Z,4840.00
2019-01-17T09:59:13.019Z,5088.00
2019-01-17T10:00:12.987Z,5764.00
2019-01-17T10:01:12.953Z,5596.00
2019-01-17T10:02:12.919Z,5052.00
2019-01-17T10:03:12.885Z,4648.00
2019-01-17T10:04:12.852Z,5244.00
2019-01-17T10:05:12.819Z,4544.00
2019-01-17T10:06:12.827Z,4520.00
2019-01-17T10:07:12.752Z,4848.00
2019-01-17T10:08:12.717Z,4552.00
2019-01-17T10:09:12.683Z,4260.00
2019-01-17T10:10:12.652Z,4640.00
2019-01-17T10:11:12.618Z,4100.00
2019-01-17T10:12:12.581Z,4176.00
2019-01-17T10:13:12.548Z,5016.00
2019-01-17T10:14:12.515Z,5716.00
2019-01-17T10:15:12.481Z,6164.00
2019-01-17T10:16:12.448Z,5876.00
2019-01-17T10:17:12.415Z,5876.00
2019-01-17T10:18:12.381Z,6320.00
2019-01-17T10:19:12.349Z,6040.00
2019-01-17T10:20:12.313Z,5644.00
2019-01-17T10:21:12.279Z,5948.00
2019-01-17T10:22:12.251Z,6412.00
2019-01-17T10:23:12.213Z,6180.00
2019-01-17T10:24:12.180Z,5908.00
2019-01-17T10:25:12.146Z,6100.00
2019-01-17T10:26:12.113Z,6316.00
2019-01-17T10:27:12.079Z,6896.00
2019-01-17T10:28:12.045Z,7016.00
2019-01-17T10:29:12.011Z,7180.00
2019-01-17T10:30:11.982Z,7932.00
2019-01-17T10:31:11.945Z,8772.00
2019-01-17T10:32:11.911Z,8808.00
2019-01-17T10:33:11.878Z,8344.00
2019-01-17T10:34:11.846Z,8420.00
2019-01-17T10:35:11.811Z,9228.00
2019-01-17T10:36:11.786Z,9896.00
2019-01-17T10:37:11.746Z,10028.00
2019-01-17T10:38:11.712Z,9780.00
2019-01-17T10:39:11.680Z,9148.00
2019-01-17T10:40:11.643Z,8816.00
2019-01-17T10:41:11.611Z,8884.00
2019-01-17T10:42:11.578Z,8652.00
2019-01-17T10:43:11.544Z,8236.00
2019-01-17T10:44:11.512Z,7752.00
2019-01-17T10:45:11.478Z,7148.00
2019-01-17T10:46:11.444Z,6860.00
2019-01-17T10:47:11.414Z,6972.00
2019-01-17T10:48:11.379Z,7164.00
2019-01-17T10:49:11.345Z,7316.00
2019-01-17T10:50:11.312Z,7788.00
2019-01-17T10:51:11.280Z,8160.00
2019-01-17T10:52:11.247Z,8172.00
2019-01-17T10:53:11.212Z,8072.00
2019-01-17T10:54:11.180Z,7964.00
2019-01-17T10:55:11.147Z,7340.00
2019-01-17T10:56:11.113Z,7056.00
2019-01-17T10:57:11.079Z,7116.00
2019-01-17T10:58:11.046Z,6752.00
2019-01-17T10:59:11.014Z,6664.00
2019-01-17T11:00:10.981Z,7544.00
2019-01-17T11:01:10.947Z,7284.00
2019-01-17T11:02:10.915Z,6216.00
2019-01-17T11:03:10.881Z,5236.00
2019-01-17T11:04:10.848Z,5156.00
2019-01-17T11:05:10.814Z,4696.00
2019-01-17T11:06:10.780Z,5028.00
2019-01-17T11:07:10.749Z,5552.00
2019-01-17T11:08:10.715Z,4552.00
2019-01-17T11:09:10.680Z,4056.00
2019-01-17T11:10:10.649Z,4312.00
2019-01-17T11:11:10.617Z,4464.00
2019-01-17T11:12:10.581Z,4956.00
2019-01-17T11:13:10.548Z,4932.00
2019-01-17T11:14:10.516Z,4168.00
2019-01-17T11:15:10.482Z,4264.00
2019-01-17T11:16:10.447Z,4352.00
2019-01-17T11:17:10.416Z,4408.00
2019-01-17T11:18:10.381Z,4648.00
2019-01-17T11:19:10.352Z,5312.00
2019-01-17T11:20:10.315Z,5088.00
2019-01-17T11:21:10.282Z,4968.00
2019-01-17T11:22:10.248Z,4688.00
2019-01-17T11:23:10.215Z,5264.00
2019-01-17T11:24:10.184Z,5812.00
2019-01-17T11:25:10.149Z,5712.00
2019-01-17T11:26:10.116Z,6776.00
2019-01-17T11:27:10.083Z,7396.00
2019-01-17T11:28:10.051Z,7156.00
2019-01-17T11:29:10.017Z,7872.00
2019-01-17T11:30:09.984Z,7624.00
2019-01-17T11:31:09.952Z,7744.00
2019-01-17T11:32:09.918Z,8856.00
2019-01-17T11:33:09.884Z,10700.00
2019-01-17T11:34:09.851Z,10992.00
2019-01-17T11:35:09.817Z,11864.00
2019-01-17T11:36:09.785Z,12700.00
2019-01-17T11:37:09.750Z,14632.00
2019-01-17T11:38:09.717Z,15352.00
2019-01-17T11:39:09.685Z,15436.00
2019-01-17T11:40:09.651Z,13560.00
2019-01-17T11:41:09.619Z,11268.00
2019-01-17T11:42:09.585Z,11428.00
2019-01-17T11:43:09.553Z,12588.00
2019-01-17T11:44:09.519Z,12380.00
2019-01-17T11:45:09.487Z,11172.00
2019-01-17T11:46:09.454Z,11032.00
2019-01-17T11:47:09.422Z,12044.00
2019-01-17T11:48:09.387Z,12732.00
2019-01-17T11:49:09.354Z,12836.00
2019-01-17T11:50:09.322Z,12764.00
2019-01-17T11:51:09.289Z,12488.00
2019-01-17T11:52:09.259Z,10540.00
2019-01-17T11:53:09.225Z,9392.00
2019-01-17T11:54:09.192Z,9976.00
2019-01-17T11:55:09.159Z,11876.00
2019-01-17T11:56:09.131Z,13392.00
2019-01-17T11:57:09.093Z,12244.00
2019-01-17T11:58:09.061Z,9812.00
2019-01-17T11:59:09.027Z,9244.00
2019-01-17T12:00:08.994Z,9700.00
2019-01-17T12:01:08.962Z,10832.00
2019-01-17T12:02:08.930Z,13468.00
2019-01-17T12:03:08.896Z,14408.00
2019-01-17T12:04:08.863Z,13552.00
2019-01-17T12:05:08.832Z,12628.00
2019-01-17T12:06:08.798Z,13020.00
2019-01-17T12:07:08.766Z,12412.00
2019-01-17T12:08:08.733Z,12508.00
2019-01-17T12:09:08.700Z,14128.00
2019-01-17T12:10:08.669Z,14812.00
2019-01-17T12:11:08.636Z,18016.00
2019-01-17T12:12:08.603Z,18176.00
2019-01-17T12:13:08.570Z,13372.00
2019-01-17T12:14:08.539Z,11176.00
2019-01-17T12:15:08.509Z,10740.00
2019-01-17T12:16:08.476Z,11480.00
2019-01-17T12:17:08.444Z,12856.00
2019-01-17T12:18:08.411Z,12808.00
2019-01-17T12:19:08.379Z,12304.00
2019-01-17T12:20:08.346Z,13464.00
2019-01-17T12:21:08.315Z,15400.00
2019-01-17T12:22:08.281Z,17024.00
2019-01-17T12:23:08.250Z,15548.00
2019-01-17T12:24:08.217Z,15524.00
2019-01-17T12:25:08.187Z,15156.00
2019-01-17T12:26:08.155Z,15144.00
2019-01-17T12:27:08.122Z,15068.00
2019-01-17T12:28:08.093Z,16800.00
2019-01-17T12:29:08.093Z,16800.00
2019-01-17T12:30:08.025Z,16320.00
2019-01-17T12:31:07.996Z,12748.00
2019-01-17T12:32:07.962Z,11068.00
2019-01-17T12:33:07.931Z,11000.00
2019-01-17T12:34:07.897Z,10528.00
2019-01-17T12:35:07.866Z,10540.00
2019-01-17T12:36:07.833Z,9240.00
2019-01-17T12:37:07.802Z,7928.00
2019-01-17T12:38:07.769Z,7528.00
2019-01-17T12:39:07.738Z,7532.00
2019-01-17T12:40:07.705Z,7148.00
2019-01-17T12:41:07.675Z,6256.00
2019-01-17T12:42:07.640Z,7204.00
2019-01-17T12:43:07.608Z,6868.00